Darstellungsparameter: Aktuell verwendete Einstellungen:
Skalierung der Graphiken ... ?
xyx+y,   Skalierungsfaktor:      Skalierung: Modus: x, Faktor: 1
Darstellungszeitraum ... ?
Vom - - bis: - -   Zeitraum: 06.05.2010 - 12.05.2010
Min/Max/Avg-Anzeige ... ?
Zeige MMA aktuell
Zeige MMA Monat
Zeige MMA alles
Zeige --A aktuell
Zeige --A Monat
Zeige --A alles
Keine MMA-Anzeige
MMA:
Average (ber die Originaldaten)
MMA-Basis: 06.05.2010 - 12.05.2010
Quicknavigation für Darstellung... ?
Tage:      1T, 2T, 3T, 5T -1T -2T -3T -5T +1T +2T +3T +5T
Wochen: 1W, 2W, 3W -1W -2W -3W +1W +2W +3W
Monate: 1M, 3M, 6M -1M -3M -6M +1M +3M +6M
Jahre:    1J, 3J, 5J, 10J -1J -3J -5J -10J +1J +3J +5J +10J
Nutze für die Darstellung ... ?
Originaldaten oder Mittelwerte auf ...
Stundenbasis Tagesbasis Wochenbasis
Monatsbasis Jahresbasis      Datenbasis: Original-Daten
Darstellen als:
Statistik (Auto) Statistik J:M      Darstellung:
Zur Graphik,    zurück zur Übersicht aller Sensoren.
 
Tabellarische Datenbersicht: ?
 
Sensor: Nr:Datum:Temp:Abs-Feuchte:Windchill:Wind:
Aussen-T/F 1 06-05-2010 00:10:02 11.3 C 3.47 g/m*3 11.3 C 0 km/h
2 06-05-2010 00:22:02 11.2 C 3.55 g/m*3 11.2 C 0 km/h
3 06-05-2010 00:34:02 11.2 C 3.55 g/m*3 11.2 C 0 km/h
4 06-05-2010 00:46:02 10.7 C 4.03 g/m*3 10.7 C 0 km/h
5 06-05-2010 00:58:02 9.8 C 4.45 g/m*3 9.8 C 0 km/h
6 06-05-2010 01:10:02 8.7 C 5.1 g/m*3 8.7 C 0 km/h
7 06-05-2010 01:22:02 7.9 C 5.5 g/m*3 7.9 C 0 km/h
8 06-05-2010 01:34:02 7.3 C 5.93 g/m*3 7.3 C 0 km/h
9 06-05-2010 01:46:02 7.1 C 6.01 g/m*3 7.1 C 0 km/h
10 06-05-2010 01:58:03 7 C 6.04 g/m*3 7 C 0 km/h
11 06-05-2010 02:10:03 6.9 C 6.31 g/m*3 6.9 C 0 km/h
12 06-05-2010 02:22:03 6.8 C 6.42 g/m*3 6.8 C 0 km/h
13 06-05-2010 02:34:03 6.7 C 6.53 g/m*3 6.7 C 0 km/h
14 06-05-2010 02:46:03 6.5 C 6.52 g/m*3 6.5 C 0 km/h
15 06-05-2010 02:58:03 6.8 C 6.73 g/m*3 6.8 C 0 km/h
16 06-05-2010 03:10:03 6.8 C 6.81 g/m*3 6.8 C 0 km/h
17 06-05-2010 03:22:03 6.7 C 6.84 g/m*3 6.7 C 0 km/h
18 06-05-2010 03:34:03 6.5 C 6.82 g/m*3 6.5 C 0 km/h
19 06-05-2010 03:46:03 6.9 C 7.01 g/m*3 6.9 C 0 km/h
20 06-05-2010 03:58:03 6.8 C 7.04 g/m*3 6.8 C 0 km/h
21 06-05-2010 04:10:03 6.9 C 7.08 g/m*3 6.9 C 0 km/h
22 06-05-2010 04:22:03 6.9 C 7.08 g/m*3 6.9 C 0 km/h
23 06-05-2010 04:34:03 6.9 C 7.08 g/m*3 6.9 C 0 km/h
24 06-05-2010 04:46:03 6.9 C 7.08 g/m*3 6.9 C 0 km/h
25 06-05-2010 04:58:03 6.8 C 7.04 g/m*3 6.8 C 0 km/h
Sensor: Nr:Datum:Temp:Abs-Feuchte:Windchill:Wind:
Aussen-T/F 26 06-05-2010 05:10:03 6.6 C 7.02 g/m*3 6.6 C 0 km/h
27 06-05-2010 05:22:03 6.5 C 6.97 g/m*3 6.5 C 0 km/h
28 06-05-2010 05:34:03 6.6 C 7.02 g/m*3 6.6 C 0 km/h
29 06-05-2010 05:46:03 6.8 C 7.11 g/m*3 6.8 C 0 km/h
30 06-05-2010 05:58:04 6.8 C 7.11 g/m*3 6.8 C 0 km/h
31 06-05-2010 06:10:04 6.5 C 6.97 g/m*3 6.5 C 0 km/h
32 06-05-2010 06:22:04 6.5 C 6.97 g/m*3 6.5 C 0 km/h
33 06-05-2010 06:34:04 6.5 C 6.97 g/m*3 6.5 C 0 km/h
34 06-05-2010 06:46:04 6.6 C 7.02 g/m*3 6.6 C 0 km/h
35 06-05-2010 06:58:04 6.5 C 7.05 g/m*3 6.5 C 0 km/h
36 06-05-2010 07:10:01 6.4 C 7 g/m*3 6.4 C 0 km/h
37 06-05-2010 07:22:02 6.4 C 7 g/m*3 6.4 C 0 km/h
38 06-05-2010 07:34:01 6.3 C 6.96 g/m*3 6.3 C 0 km/h
39 06-05-2010 07:46:03 6.5 C 7.05 g/m*3 6.5 C 0 km/h
40 06-05-2010 07:58:03 6.3 C 6.96 g/m*3 6.3 C 0 km/h
41 06-05-2010 08:10:02 6.1 C 6.87 g/m*3 6.1 C 0 km/h
42 06-05-2010 08:22:02 6.2 C 6.91 g/m*3 6.2 C 0 km/h
43 06-05-2010 08:34:03 6.2 C 6.91 g/m*3 6.2 C 0 km/h
44 06-05-2010 08:46:02 6.4 C 7 g/m*3 6.4 C 0 km/h
45 06-05-2010 08:58:02 6.2 C 6.91 g/m*3 6.2 C 0 km/h
46 06-05-2010 09:10:02 6.2 C 6.84 g/m*3 6.2 C 0 km/h
47 06-05-2010 09:22:01 6.4 C 7 g/m*3 6.4 C 0 km/h
48 06-05-2010 09:34:02 6.6 C 7.1 g/m*3 6.6 C 0 km/h
49 06-05-2010 09:46:02 6.8 C 7.19 g/m*3 6.8 C 0 km/h
50 06-05-2010 09:58:02 6.8 C 7.19 g/m*3 6.8 C 0 km/h
Sensor: Nr:Datum:Temp:Abs-Feuchte:Windchill:Wind:
Aussen-T/F 51 06-05-2010 10:10:02 6.8 C 7.19 g/m*3 6.8 C 0 km/h
52 06-05-2010 10:22:02 6.9 C 7.24 g/m*3 6.9 C 0 km/h
53 06-05-2010 10:34:02 6.8 C 7.11 g/m*3 6.8 C 0 km/h
54 06-05-2010 10:46:02 6.8 C 7.11 g/m*3 6.8 C 0 km/h
55 06-05-2010 10:58:02 6.9 C 7.16 g/m*3 6.9 C 0 km/h
56 06-05-2010 11:10:02 7 C 7.21 g/m*3 7 C 0 km/h
57 06-05-2010 11:22:02 7 C 7.13 g/m*3 7 C 0 km/h
58 06-05-2010 11:34:02 7 C 7.13 g/m*3 7 C 0 km/h
59 06-05-2010 11:46:01 7.1 C 7.18 g/m*3 7.1 C 0 km/h
60 06-05-2010 11:58:01 7.1 C 7.18 g/m*3 7.1 C 0 km/h
61 06-05-2010 12:10:01 7.2 C 7.22 g/m*3 7.2 C 0 km/h
62 06-05-2010 12:22:02 6.9 C 7.08 g/m*3 6.9 C 0 km/h
63 06-05-2010 12:34:02 6.9 C 7.01 g/m*3 6.9 C 0 km/h
64 06-05-2010 12:46:01 7.1 C 7.1 g/m*3 7.1 C 0 km/h
65 06-05-2010 12:58:01 7.2 C 7.06 g/m*3 7.2 C 0 km/h
66 06-05-2010 13:10:02 7.5 C 7.2 g/m*3 7.5 C 0 km/h
67 06-05-2010 13:22:01 7.7 C 7.3 g/m*3 7.7 C 0 km/h
68 06-05-2010 13:34:02 7.4 C 7.16 g/m*3 7.4 C 0 km/h
69 06-05-2010 13:46:02 7.3 C 7.19 g/m*3 7.3 C 0 km/h
70 06-05-2010 13:58:02 7.2 C 7.14 g/m*3 7.2 C 0 km/h
71 06-05-2010 14:10:03 7.3 C 7.27 g/m*3 7.3 C 0 km/h
72 06-05-2010 14:22:02 7.4 C 7.32 g/m*3 7.4 C 0 km/h
73 06-05-2010 14:34:03 7.3 C 7.27 g/m*3 7.3 C 0 km/h
74 06-05-2010 14:46:02 7.4 C 7.32 g/m*3 7.4 C 0 km/h
75 06-05-2010 14:58:02 7.6 C 7.49 g/m*3 7.6 C 0 km/h
Sensor: Nr:Datum:Temp:Abs-Feuchte:Windchill:Wind:
Aussen-T/F 76 06-05-2010 15:10:02 7.5 C 7.44 g/m*3 7.5 C 0 km/h
77 06-05-2010 15:22:02 7.1 C 7.18 g/m*3 7.1 C 0 km/h
78 06-05-2010 15:34:03 7.1 C 7.25 g/m*3 7.1 C 0 km/h
79 06-05-2010 15:46:01 6.9 C 7.16 g/m*3 6.9 C 0 km/h
80 06-05-2010 15:58:01 6.9 C 7.24 g/m*3 6.9 C 0 km/h
81 06-05-2010 16:10:02 6.7 C 7.14 g/m*3 6.7 C 0 km/h
82 06-05-2010 16:22:02 6.5 C 6.97 g/m*3 6.5 C 0 km/h
83 06-05-2010 16:34:02 6.5 C 6.97 g/m*3 6.5 C 0 km/h
84 06-05-2010 16:46:03 6.5 C 6.97 g/m*3 6.5 C 0 km/h
85 06-05-2010 16:58:03 6.5 C 6.97 g/m*3 6.5 C 0 km/h
86 06-05-2010 17:10:02 6.5 C 6.9 g/m*3 6.5 C 0 km/h
87 06-05-2010 17:22:03 6.6 C 6.95 g/m*3 6.6 C 0 km/h
88 06-05-2010 17:34:02 6.4 C 6.85 g/m*3 6.4 C 0 km/h
89 06-05-2010 17:46:03 6.5 C 6.9 g/m*3 6.5 C 0 km/h
90 06-05-2010 17:58:03 6.3 C 6.81 g/m*3 6.3 C 0 km/h
91 06-05-2010 18:10:02 6 C 6.6 g/m*3 6 C 0 km/h
92 06-05-2010 18:22:02 5.9 C 6.56 g/m*3 5.9 C 0 km/h
93 06-05-2010 18:34:02 5.8 C 6.52 g/m*3 5.8 C 0 km/h
94 06-05-2010 18:46:02 5.9 C 6.63 g/m*3 5.9 C 0 km/h
95 06-05-2010 18:58:02 5.9 C 6.63 g/m*3 5.9 C 0 km/h
96 06-05-2010 19:10:02 6 C 6.6 g/m*3 6 C 0 km/h
97 06-05-2010 19:22:02 5.9 C 6.63 g/m*3 5.9 C 0 km/h
98 06-05-2010 19:34:02 5.9 C 6.63 g/m*3 5.9 C 0 km/h
99 06-05-2010 19:46:02 5.7 C 6.55 g/m*3 5.7 C 0 km/h
100 06-05-2010 19:58:02 5.6 C 6.57 g/m*3 5.6 C 0 km/h
Sensor: Nr:Datum:Temp:Abs-Feuchte:Windchill:Wind:
Aussen-T/F 101 06-05-2010 20:10:01 5.6 C 6.57 g/m*3 5.6 C 0 km/h
102 06-05-2010 20:22:02 5.5 C 6.53 g/m*3 5.5 C 0 km/h
103 06-05-2010 20:34:02 5.6 C 6.65 g/m*3 5.6 C 0 km/h
104 06-05-2010 20:46:02 5.4 C 6.56 g/m*3 5.4 C 0 km/h
105 06-05-2010 20:58:02 5.4 C 6.56 g/m*3 5.4 C 0 km/h
106 06-05-2010 21:10:01 5.4 C 6.56 g/m*3 5.4 C 0 km/h
107 06-05-2010 21:22:02 5.4 C 6.56 g/m*3 5.4 C 0 km/h
108 06-05-2010 21:34:01 5.3 C 6.52 g/m*3 5.3 C 0 km/h
109 06-05-2010 21:46:03 5.4 C 6.56 g/m*3 5.4 C 0 km/h
110 06-05-2010 21:58:03 5.4 C 6.56 g/m*3 5.4 C 0 km/h
111 06-05-2010 22:10:02 5.4 C 6.63 g/m*3 5.4 C 0 km/h
112 06-05-2010 22:22:02 5.4 C 6.63 g/m*3 5.4 C 0 km/h
113 06-05-2010 22:34:02 5.4 C 6.63 g/m*3 5.4 C 0 km/h
114 06-05-2010 22:47:02 5.4 C 6.63 g/m*3 5.4 C 0 km/h
115 06-05-2010 22:59:02 5.4 C 6.63 g/m*3 5.4 C 0 km/h
116 06-05-2010 23:11:02 5.4 C 6.63 g/m*3 5.4 C 0 km/h
117 06-05-2010 23:23:02 5.4 C 6.63 g/m*3 5.4 C 0 km/h
118 06-05-2010 23:35:02 5.4 C 6.63 g/m*3 5.4 C 0 km/h
119 06-05-2010 23:47:02 5.3 C 6.58 g/m*3 5.3 C 0 km/h
120 06-05-2010 23:59:02 5.3 C 6.58 g/m*3 5.3 C 0 km/h
121 07-05-2010 00:11:02 5.4 C 6.63 g/m*3 5.4 C 0 km/h
122 07-05-2010 00:23:02 5.4 C 6.63 g/m*3 5.4 C 0 km/h
123 07-05-2010 00:35:02 5.4 C 6.63 g/m*3 5.4 C 0 km/h
124 07-05-2010 00:47:02 5.4 C 6.63 g/m*3 5.4 C 0 km/h
125 07-05-2010 00:59:02 5.4 C 6.63 g/m*3 5.4 C 0 km/h
Sensor: Nr:Datum:Temp:Abs-Feuchte:Windchill:Wind:
Aussen-T/F 126 07-05-2010 01:11:03 5.4 C 6.63 g/m*3 5.4 C 0 km/h
127 07-05-2010 01:23:03 5.4 C 6.63 g/m*3 5.4 C 0 km/h
128 07-05-2010 01:35:03 5.4 C 6.63 g/m*3 5.4 C 0 km/h
129 07-05-2010 01:47:03 5.4 C 6.63 g/m*3 5.4 C 0 km/h
130 07-05-2010 01:59:03 5.4 C 6.63 g/m*3 5.4 C 0 km/h
131 07-05-2010 02:11:03 5.4 C 6.63 g/m*3 5.4 C 0 km/h
132 07-05-2010 02:23:03 5.4 C 6.63 g/m*3 5.4 C 0 km/h
133 07-05-2010 02:35:03 5.4 C 6.63 g/m*3 5.4 C 0 km/h
134 07-05-2010 02:47:03 5.4 C 6.63 g/m*3 5.4 C 0 km/h
135 07-05-2010 02:59:03 5.4 C 6.63 g/m*3 5.4 C 0 km/h
136 07-05-2010 03:11:03 5.4 C 6.63 g/m*3 5.4 C 0 km/h
137 07-05-2010 03:23:03 5.4 C 6.63 g/m*3 5.4 C 0 km/h
138 07-05-2010 03:35:03 5.3 C 6.58 g/m*3 5.3 C 0 km/h
139 07-05-2010 03:47:03 5.3 C 6.58 g/m*3 5.3 C 0 km/h
140 07-05-2010 03:59:03 5.2 C 6.54 g/m*3 5.2 C 0 km/h
141 07-05-2010 04:11:03 5.2 C 6.54 g/m*3 5.2 C 0 km/h
142 07-05-2010 04:23:03 5.2 C 6.54 g/m*3 5.2 C 0 km/h
143 07-05-2010 04:35:03 5.2 C 6.54 g/m*3 5.2 C 0 km/h
144 07-05-2010 04:47:03 5.2 C 6.54 g/m*3 5.2 C 0 km/h
145 07-05-2010 04:59:03 5.1 C 6.5 g/m*3 5.1 C 0 km/h
146 07-05-2010 05:11:04 5 C 6.46 g/m*3 5 C 0 km/h
147 07-05-2010 05:23:04 5 C 6.46 g/m*3 5 C 0 km/h
148 07-05-2010 05:35:04 4.9 C 6.41 g/m*3 4.9 C 0 km/h
149 07-05-2010 05:47:04 4.8 C 6.37 g/m*3 4.8 C 0 km/h
150 07-05-2010 05:59:04 4.7 C 6.33 g/m*3 4.7 C 0 km/h
Sensor: Nr:Datum:Temp:Abs-Feuchte:Windchill:Wind:
Aussen-T/F 151 07-05-2010 06:11:04 4.7 C 6.33 g/m*3 4.7 C 0 km/h
152 07-05-2010 06:23:04 4.6 C 6.29 g/m*3 4.6 C 0 km/h
153 07-05-2010 06:35:04 4.5 C 6.24 g/m*3 4.5 C 0 km/h
154 07-05-2010 06:47:04 4.6 C 6.29 g/m*3 4.6 C 0 km/h
155 07-05-2010 06:59:04 4.6 C 6.29 g/m*3 4.6 C 0 km/h
156 07-05-2010 07:11:04 4.6 C 6.29 g/m*3 4.6 C 0 km/h
157 07-05-2010 07:23:04 4.7 C 6.33 g/m*3 4.7 C 0 km/h
158 07-05-2010 07:35:04 4.6 C 6.29 g/m*3 4.6 C 0 km/h
159 07-05-2010 07:47:04 4.7 C 6.33 g/m*3 4.7 C 0 km/h
160 07-05-2010 07:59:04 4.8 C 6.37 g/m*3 4.8 C 0 km/h
161 07-05-2010 08:11:04 4.9 C 6.41 g/m*3 4.9 C 0 km/h
162 07-05-2010 08:23:04 4.8 C 6.37 g/m*3 4.8 C 0 km/h
163 07-05-2010 08:35:02 5 C 6.46 g/m*3 5 C 0 km/h
164 07-05-2010 08:47:02 4.8 C 6.3 g/m*3 4.8 C 0 km/h
165 07-05-2010 08:59:02 4.6 C 6.22 g/m*3 4.6 C 0 km/h
166 07-05-2010 09:11:02 4.9 C 6.28 g/m*3 4.9 C 0 km/h
167 07-05-2010 09:23:03 4.8 C 6.24 g/m*3 4.8 C 0 km/h
168 07-05-2010 09:35:02 4.7 C 6.13 g/m*3 4.7 C 0 km/h
169 07-05-2010 09:47:02 5 C 6.12 g/m*3 5 C 0 km/h
170 07-05-2010 09:59:02 4.9 C 6.08 g/m*3 4.9 C 0 km/h
171 07-05-2010 10:11:02 5 C 6.05 g/m*3 5 C 0 km/h
172 07-05-2010 10:23:02 5.3 C 6.17 g/m*3 5.3 C 0 km/h
173 07-05-2010 10:35:02 6 C 6.39 g/m*3 6 C 0 km/h
174 07-05-2010 10:47:02 5.6 C 6.15 g/m*3 5.6 C 0 km/h
175 07-05-2010 10:59:02 5.7 C 6.12 g/m*3 5.7 C 0 km/h
Sensor: Nr:Datum:Temp:Abs-Feuchte:Windchill:Wind:
Aussen-T/F 176 07-05-2010 11:11:01 6.8 C 6.58 g/m*3 6.8 C 0 km/h
177 07-05-2010 11:23:02 7 C 6.66 g/m*3 7 C 0 km/h
178 07-05-2010 11:35:02 7.1 C 6.71 g/m*3 7.1 C 0 km/h
179 07-05-2010 11:47:02 7.1 C 6.71 g/m*3 7.1 C 0 km/h
180 07-05-2010 11:59:02 7.1 C 6.63 g/m*3 7.1 C 0 km/h
181 07-05-2010 12:11:03 7.1 C 6.4 g/m*3 7.1 C 0 km/h
182 07-05-2010 12:23:02 7 C 6.28 g/m*3 7 C 0 km/h
183 07-05-2010 12:35:02 7.1 C 6.4 g/m*3 7.1 C 0 km/h
184 07-05-2010 12:47:01 7.3 C 6.48 g/m*3 7.3 C 0 km/h
185 07-05-2010 12:59:01 7.2 C 6.2 g/m*3 7.2 C 0 km/h
186 07-05-2010 13:11:02 7.3 C 6.4 g/m*3 7.3 C 0 km/h
187 07-05-2010 13:23:01 7.8 C 6.61 g/m*3 7.8 C 0 km/h
188 07-05-2010 13:35:02 8.3 C 6.66 g/m*3 8.3 C 0 km/h
189 07-05-2010 13:47:01 7.9 C 6.49 g/m*3 7.9 C 0 km/h
190 07-05-2010 13:59:01 7.7 C 6.41 g/m*3 7.7 C 0 km/h
191 07-05-2010 14:11:02 8.6 C 6.87 g/m*3 8.6 C 0 km/h
192 07-05-2010 14:23:01 8.4 C 6.79 g/m*3 8.4 C 0 km/h
193 07-05-2010 14:35:02 8.5 C 6.92 g/m*3 8.5 C 0 km/h
194 07-05-2010 14:47:01 8.3 C 6.83 g/m*3 8.3 C 0 km/h
195 07-05-2010 14:59:01 8.3 C 6.66 g/m*3 8.3 C 0 km/h
196 07-05-2010 15:11:02 8.4 C 6.87 g/m*3 8.4 C 0 km/h
197 07-05-2010 15:23:02 7.8 C 6.61 g/m*3 7.8 C 0 km/h
198 07-05-2010 15:35:02 7.7 C 6.57 g/m*3 7.7 C 0 km/h
199 07-05-2010 15:47:02 8.5 C 7 g/m*3 8.5 C 0 km/h
200 07-05-2010 15:59:02 8.6 C 7.05 g/m*3 8.6 C 0 km/h
Sensor: Nr:Datum:Temp:Abs-Feuchte:Windchill:Wind:
Aussen-T/F 201 07-05-2010 16:11:01 9.3 C 7.19 g/m*3 9.3 C 0 km/h
202 07-05-2010 16:23:01 9.2 C 6.97 g/m*3 9.2 C 0 km/h
203 07-05-2010 16:35:01 9 C 6.61 g/m*3 9 C 0 km/h
204 07-05-2010 16:47:01 9.2 C 6.97 g/m*3 9.2 C 0 km/h
205 07-05-2010 16:59:01 9.1 C 6.92 g/m*3 9.1 C 0 km/h
206 07-05-2010 17:11:02 8.9 C 6.92 g/m*3 8.9 C 0 km/h
207 07-05-2010 17:23:01 9.2 C 6.97 g/m*3 9.2 C 0 km/h
208 07-05-2010 17:35:02 9.4 C 7.05 g/m*3 9.4 C 0 km/h
209 07-05-2010 17:47:01 9.8 C 7.24 g/m*3 9.8 C 0 km/h
210 07-05-2010 17:59:01 9.8 C 7.24 g/m*3 9.8 C 0 km/h
211 07-05-2010 18:11:02 9.8 C 7.24 g/m*3 9.8 C 0 km/h
212 07-05-2010 18:23:02 9.4 C 6.96 g/m*3 9.4 C 0 km/h
213 07-05-2010 18:35:02 9 C 6.88 g/m*3 9 C 0 km/h
214 07-05-2010 18:47:02 9 C 7.05 g/m*3 9 C 0 km/h
215 07-05-2010 18:59:02 8.5 C 7 g/m*3 8.5 C 0 km/h
216 07-05-2010 19:11:02 8.2 C 7.03 g/m*3 8.2 C 0 km/h
217 07-05-2010 19:23:02 8.1 C 6.99 g/m*3 8.1 C 0 km/h
218 07-05-2010 19:35:02 7.9 C 7.06 g/m*3 7.9 C 0 km/h
219 07-05-2010 19:47:02 7.6 C 7.09 g/m*3 7.6 C 0 km/h
220 07-05-2010 19:59:02 7.7 C 7.14 g/m*3 7.7 C 0 km/h
221 07-05-2010 20:11:02 7.3 C 7.03 g/m*3 7.3 C 0 km/h
222 07-05-2010 20:23:01 7.3 C 7.03 g/m*3 7.3 C 0 km/h
223 07-05-2010 20:35:02 7.2 C 7.06 g/m*3 7.2 C 0 km/h
224 07-05-2010 20:47:02 7.1 C 7.1 g/m*3 7.1 C 0 km/h
225 07-05-2010 20:59:02 6.9 C 7.08 g/m*3 6.9 C 0 km/h
Sensor: Nr:Datum:Temp:Abs-Feuchte:Windchill:Wind:
Aussen-T/F 226 07-05-2010 21:11:02 6.7 C 6.99 g/m*3 6.7 C 0 km/h
227 07-05-2010 21:23:02 6.8 C 7.04 g/m*3 6.8 C 0 km/h
228 07-05-2010 21:35:02 6.8 C 7.11 g/m*3 6.8 C 0 km/h
229 07-05-2010 21:47:02 6.7 C 7.07 g/m*3 6.7 C 0 km/h
230 07-05-2010 21:59:02 6.4 C 6.93 g/m*3 6.4 C 0 km/h
231 07-05-2010 22:11:02 6.1 C 6.79 g/m*3 6.1 C 0 km/h
232 07-05-2010 22:23:02 5.9 C 6.71 g/m*3 5.9 C 0 km/h
233 07-05-2010 22:35:02 5.7 C 6.62 g/m*3 5.7 C 0 km/h
234 07-05-2010 22:47:02 5.6 C 6.57 g/m*3 5.6 C 0 km/h
235 07-05-2010 22:59:02 5.7 C 6.69 g/m*3 5.7 C 0 km/h
236 07-05-2010 23:11:01 5.9 C 6.78 g/m*3 5.9 C 0 km/h
237 07-05-2010 23:23:02 5.9 C 6.78 g/m*3 5.9 C 0 km/h
238 07-05-2010 23:35:02 5.9 C 6.85 g/m*3 5.9 C 0 km/h
239 07-05-2010 23:47:02 6 C 6.82 g/m*3 6 C 0 km/h
240 07-05-2010 23:59:03 6.1 C 6.87 g/m*3 6.1 C 0 km/h
241 08-05-2010 00:11:01 6.2 C 6.91 g/m*3 6.2 C 0 km/h
242 08-05-2010 00:23:02 6.2 C 6.91 g/m*3 6.2 C 0 km/h
243 08-05-2010 00:35:01 6 C 6.82 g/m*3 6 C 0 km/h
244 08-05-2010 00:47:02 5.6 C 6.65 g/m*3 5.6 C 0 km/h
245 08-05-2010 00:59:02 5.5 C 6.6 g/m*3 5.5 C 0 km/h
246 08-05-2010 01:11:02 5.4 C 6.56 g/m*3 5.4 C 0 km/h
247 08-05-2010 01:23:02 5.1 C 6.43 g/m*3 5.1 C 0 km/h
248 08-05-2010 01:35:02 4.9 C 6.35 g/m*3 4.9 C 0 km/h
249 08-05-2010 01:47:02 4.7 C 6.26 g/m*3 4.7 C 0 km/h
250 08-05-2010 01:59:02 4.7 C 6.33 g/m*3 4.7 C 0 km/h
Sensor: Nr:Datum:Temp:Abs-Feuchte:Windchill:Wind:
Aussen-T/F 251 08-05-2010 02:11:01 4.5 C 6.18 g/m*3 4.5 C 0 km/h
252 08-05-2010 02:23:02 4.5 C 6.24 g/m*3 4.5 C 0 km/h
253 08-05-2010 02:35:02 4.6 C 6.29 g/m*3 4.6 C 0 km/h
254 08-05-2010 02:48:03 4.4 C 6.2 g/m*3 4.4 C 0 km/h
255 08-05-2010 03:00:03 4.5 C 6.24 g/m*3 4.5 C 0 km/h
256 08-05-2010 03:12:03 4.6 C 6.29 g/m*3 4.6 C 0 km/h
257 08-05-2010 03:24:03 4.7 C 6.33 g/m*3 4.7 C 0 km/h
258 08-05-2010 03:36:02 4.6 C 6.29 g/m*3 4.6 C 0 km/h
259 08-05-2010 03:48:02 4.6 C 6.29 g/m*3 4.6 C 0 km/h
260 08-05-2010 04:00:02 4.7 C 6.33 g/m*3 4.7 C 0 km/h
261 08-05-2010 04:12:02 4.6 C 6.29 g/m*3 4.6 C 0 km/h
262 08-05-2010 04:24:02 4.4 C 6.2 g/m*3 4.4 C 0 km/h
263 08-05-2010 04:36:02 4 C 6.04 g/m*3 4 C 0 km/h
264 08-05-2010 04:48:02 4 C 6.04 g/m*3 4 C 0 km/h
265 08-05-2010 05:00:02 4.1 C 6.08 g/m*3 4.1 C 0 km/h
266 08-05-2010 05:12:01 4.2 C 6.12 g/m*3 4.2 C 0 km/h
267 08-05-2010 05:24:02 4.4 C 6.2 g/m*3 4.4 C 0 km/h
268 08-05-2010 05:36:02 4.5 C 6.24 g/m*3 4.5 C 0 km/h
269 08-05-2010 05:48:02 4.5 C 6.24 g/m*3 4.5 C 0 km/h
270 08-05-2010 06:00:02 4.5 C 6.24 g/m*3 4.5 C 0 km/h
271 08-05-2010 06:12:03 4.6 C 6.29 g/m*3 4.6 C 0 km/h
272 08-05-2010 06:24:02 4.6 C 6.29 g/m*3 4.6 C 0 km/h
273 08-05-2010 06:36:02 4.8 C 6.37 g/m*3 4.8 C 0 km/h
274 08-05-2010 06:48:01 4.8 C 6.37 g/m*3 4.8 C 0 km/h
275 08-05-2010 07:00:01 4.8 C 6.37 g/m*3 4.8 C 0 km/h
Sensor: Nr:Datum:Temp:Abs-Feuchte:Windchill:Wind:
Aussen-T/F 276 08-05-2010 07:12:02 5 C 6.46 g/m*3 5 C 0 km/h
277 08-05-2010 07:24:01 5.2 C 6.54 g/m*3 5.2 C 0 km/h
278 08-05-2010 07:36:01 5.5 C 6.67 g/m*3 5.5 C 0 km/h
279 08-05-2010 07:48:01 5.6 C 6.72 g/m*3 5.6 C 0 km/h
280 08-05-2010 08:00:01 5.9 C 6.78 g/m*3 5.9 C 0 km/h
281 08-05-2010 08:12:02 6 C 6.68 g/m*3 6 C 0 km/h
282 08-05-2010 08:24:01 5.8 C 6.52 g/m*3 5.8 C 0 km/h
283 08-05-2010 08:36:01 6.2 C 6.55 g/m*3 6.2 C 0 km/h
284 08-05-2010 08:48:01 6.5 C 6.6 g/m*3 6.5 C 0 km/h
285 08-05-2010 09:00:01 7.3 C 6.87 g/m*3 7.3 C 0 km/h
286 08-05-2010 09:12:02 8 C 7.03 g/m*3 8 C 0 km/h
287 08-05-2010 09:24:01 8.1 C 6.82 g/m*3 8.1 C 0 km/h
288 08-05-2010 09:36:01 8.7 C 7.01 g/m*3 8.7 C 0 km/h
289 08-05-2010 09:48:01 9.2 C 7.05 g/m*3 9.2 C 0 km/h
290 08-05-2010 10:00:01 9.1 C 6.74 g/m*3 9.1 C 0 km/h
291 08-05-2010 10:12:02 9.1 C 6.57 g/m*3 9.1 C 0 km/h
292 08-05-2010 10:24:01 9.6 C 6.87 g/m*3 9.6 C 0 km/h
293 08-05-2010 10:36:01 10.1 C 6.9 g/m*3 10.1 C 0 km/h
294 08-05-2010 10:48:01 10.4 C 7.04 g/m*3 10.4 C 0 km/h
295 08-05-2010 11:00:01 11.2 C 7.3 g/m*3 11.2 C 0 km/h
296 08-05-2010 11:12:02 12.1 C 7.18 g/m*3 12.1 C 0 km/h
297 08-05-2010 11:24:01 12.8 C 7.06 g/m*3 12.8 C 0 km/h
298 08-05-2010 11:36:01 14.1 C 6.31 g/m*3 14.1 C 0 km/h
299 08-05-2010 11:48:01 15.1 C 5.55 g/m*3 15.1 C 0 km/h
300 08-05-2010 12:00:01 14.8 C 5.32 g/m*3 14.8 C 0 km/h
Sensor: Nr:Datum:Temp:Abs-Feuchte:Windchill:Wind:
Aussen-T/F 301 08-05-2010 12:12:01 14.5 C 4.97 g/m*3 14.5 C 0 km/h
302 08-05-2010 12:24:02 15.6 C 5.19 g/m*3 15.6 C 0 km/h
303 08-05-2010 12:36:01 15 C 4.74 g/m*3 15 C 0 km/h
304 08-05-2010 12:48:03 16.3 C 5.13 g/m*3 16.3 C 0 km/h
305 08-05-2010 13:00:03 16.5 C 5.2 g/m*3 16.5 C 0 km/h
306 08-05-2010 13:12:02 16 C 5.31 g/m*3 16 C 0 km/h
307 08-05-2010 13:24:02 15.8 C 5.25 g/m*3 15.8 C 0 km/h
308 08-05-2010 13:36:02 17.5 C 5.37 g/m*3 17.5 C 0 km/h
309 08-05-2010 13:48:02 18.4 C 4.88 g/m*3 18.4 C 0 km/h
310 08-05-2010 14:00:02 16.4 C 4.19 g/m*3 16.4 C 0 km/h
311 08-05-2010 14:12:02 15.5 C 4.1 g/m*3 15.5 C 0 km/h
312 08-05-2010 14:24:02 15 C 4.36 g/m*3 15 C 0 km/h
313 08-05-2010 14:36:01 15.6 C 4.39 g/m*3 15.6 C 0 km/h
314 08-05-2010 14:48:02 15.6 C 4.12 g/m*3 15.6 C 0 km/h
315 08-05-2010 15:00:02 16 C 4.22 g/m*3 16 C 0 km/h
316 08-05-2010 15:12:01 16.1 C 4.25 g/m*3 16.1 C 0 km/h
317 08-05-2010 15:24:02 16 C 4.36 g/m*3 16 C 0 km/h
318 08-05-2010 15:36:02 16 C 4.36 g/m*3 16 C 0 km/h
319 08-05-2010 15:48:02 15.5 C 4.63 g/m*3 15.5 C 0 km/h
320 08-05-2010 16:00:02 16.4 C 4.61 g/m*3 16.4 C 0 km/h
321 08-05-2010 16:12:03 16.6 C 4.38 g/m*3 16.6 C 0 km/h
322 08-05-2010 16:24:02 16.4 C 4.47 g/m*3 16.4 C 0 km/h
323 08-05-2010 16:36:02 17.5 C 4.32 g/m*3 17.5 C 0 km/h
324 08-05-2010 16:48:01 17.6 C 4.2 g/m*3 17.6 C 0 km/h
325 08-05-2010 17:00:01 17.4 C 4.15 g/m*3 17.4 C 0 km/h
Sensor: Nr:Datum:Temp:Abs-Feuchte:Windchill:Wind:
Aussen-T/F 326 08-05-2010 17:12:02 17.5 C 4.17 g/m*3 17.5 C 0 km/h
327 08-05-2010 17:24:01 18.5 C 4.27 g/m*3 18.5 C 0 km/h
328 08-05-2010 17:36:02 17.9 C 4.12 g/m*3 17.9 C 0 km/h
329 08-05-2010 17:48:01 18.7 C 4.16 g/m*3 18.7 C 0 km/h
330 08-05-2010 18:00:01 19.2 C 4.12 g/m*3 19.2 C 0 km/h
331 08-05-2010 18:12:02 19.9 C 3.95 g/m*3 19.9 C 0 km/h
332 08-05-2010 18:24:01 19.4 C 4 g/m*3 19.4 C 0 km/h
333 08-05-2010 18:36:02 19.5 C 4.2 g/m*3 19.5 C 0 km/h
334 08-05-2010 18:48:01 19.8 C 4.27 g/m*3 19.8 C 0 km/h
335 08-05-2010 19:00:01 19.1 C 4.1 g/m*3 19.1 C 0 km/h
336 08-05-2010 19:12:02 18.8 C 4.03 g/m*3 18.8 C 0 km/h
337 08-05-2010 19:24:02 18.4 C 4.25 g/m*3 18.4 C 0 km/h
338 08-05-2010 19:36:02 17.5 C 4.47 g/m*3 17.5 C 0 km/h
339 08-05-2010 19:48:01 17.6 C 4.65 g/m*3 17.6 C 0 km/h
340 08-05-2010 20:00:01 17.3 C 5.16 g/m*3 17.3 C 0 km/h
341 08-05-2010 20:12:02 16.5 C 6.04 g/m*3 16.5 C 0 km/h
342 08-05-2010 20:24:02 15.7 C 6.42 g/m*3 15.7 C 0 km/h
343 08-05-2010 20:36:02 15.1 C 6.06 g/m*3 15.1 C 0 km/h
344 08-05-2010 20:48:01 14.3 C 6.02 g/m*3 14.3 C 0 km/h
345 08-05-2010 21:00:01 13.8 C 5.96 g/m*3 13.8 C 0 km/h
346 08-05-2010 21:12:02 13.5 C 6.08 g/m*3 13.5 C 0 km/h
347 08-05-2010 21:24:02 13.5 C 6.43 g/m*3 13.5 C 0 km/h
348 08-05-2010 21:36:02 13.5 C 6.08 g/m*3 13.5 C 0 km/h
349 08-05-2010 21:48:02 12.9 C 5.97 g/m*3 12.9 C 0 km/h
350 08-05-2010 22:00:02 12.4 C 5.9 g/m*3 12.4 C 0 km/h
Sensor: Nr:Datum:Temp:Abs-Feuchte:Windchill:Wind:
Aussen-T/F 351 08-05-2010 22:12:02 11.9 C 6.04 g/m*3 11.9 C 0 km/h
352 08-05-2010 22:24:02 11.7 C 5.86 g/m*3 11.7 C 0 km/h
353 08-05-2010 22:36:01 11.8 C 6.21 g/m*3 11.8 C 0 km/h
354 08-05-2010 22:48:02 12 C 6.39 g/m*3 12 C 0 km/h
355 08-05-2010 23:00:02 11.8 C 6.21 g/m*3 11.8 C 0 km/h
356 08-05-2010 23:12:01 11.6 C 6.34 g/m*3 11.6 C 0 km/h
357 08-05-2010 23:24:02 11 C 6.21 g/m*3 11 C 0 km/h
358 08-05-2010 23:36:01 10.6 C 6.25 g/m*3 10.6 C 0 km/h
359 08-05-2010 23:48:02 10.3 C 6.22 g/m*3 10.3 C 0 km/h
360 09-05-2010 00:00:02 10.2 C 6.38 g/m*3 10.2 C 0 km/h
361 09-05-2010 00:12:02 10 C 6.39 g/m*3 10 C 0 km/h
362 09-05-2010 00:24:03 9.8 C 6.49 g/m*3 9.8 C 0 km/h
363 09-05-2010 00:36:02 9.6 C 6.41 g/m*3 9.6 C 0 km/h
364 09-05-2010 00:48:02 9.4 C 6.42 g/m*3 9.4 C 0 km/h
365 09-05-2010 01:00:02 9.1 C 6.39 g/m*3 9.1 C 0 km/h
366 09-05-2010 01:12:02 9 C 6.52 g/m*3 9 C 0 km/h
367 09-05-2010 01:24:03 8.7 C 6.49 g/m*3 8.7 C 0 km/h
368 09-05-2010 01:36:02 8.6 C 6.44 g/m*3 8.6 C 0 km/h
369 09-05-2010 01:48:03 8.7 C 6.57 g/m*3 8.7 C 0 km/h
370 09-05-2010 02:00:03 8.8 C 6.7 g/m*3 8.8 C 0 km/h
371 09-05-2010 02:12:02 8.7 C 6.66 g/m*3 8.7 C 0 km/h
372 09-05-2010 02:24:02 8.7 C 6.66 g/m*3 8.7 C 0 km/h
373 09-05-2010 02:36:02 8.4 C 6.53 g/m*3 8.4 C 0 km/h
374 09-05-2010 02:49:04 8.5 C 6.57 g/m*3 8.5 C 0 km/h
375 09-05-2010 03:01:04 8.5 C 6.66 g/m*3 8.5 C 0 km/h
Sensor: Nr:Datum:Temp:Abs-Feuchte:Windchill:Wind:
Aussen-T/F 376 09-05-2010 03:13:03 8.3 C 6.57 g/m*3 8.3 C 0 km/h
377 09-05-2010 03:25:03 8.5 C 6.66 g/m*3 8.5 C 0 km/h
378 09-05-2010 03:37:01 8.5 C 6.66 g/m*3 8.5 C 0 km/h
379 09-05-2010 03:49:01 8.5 C 6.66 g/m*3 8.5 C 0 km/h
380 09-05-2010 04:01:01 8.6 C 6.7 g/m*3 8.6 C 0 km/h
381 09-05-2010 04:13:01 8.6 C 6.7 g/m*3 8.6 C 0 km/h
382 09-05-2010 04:25:02 8.5 C 6.66 g/m*3 8.5 C 0 km/h
383 09-05-2010 04:37:01 8.5 C 6.66 g/m*3 8.5 C 0 km/h
384 09-05-2010 04:49:03 8.3 C 6.57 g/m*3 8.3 C 0 km/h
385 09-05-2010 05:01:02 8 C 6.45 g/m*3 8 C 0 km/h
386 09-05-2010 05:13:02 7.8 C 6.53 g/m*3 7.8 C 0 km/h
387 09-05-2010 05:25:02 7.6 C 6.53 g/m*3 7.6 C 0 km/h
388 09-05-2010 05:37:02 7.4 C 6.52 g/m*3 7.4 C 0 km/h
389 09-05-2010 05:49:02 7.4 C 6.52 g/m*3 7.4 C 0 km/h
390 09-05-2010 06:01:02 7.6 C 6.69 g/m*3 7.6 C 0 km/h
391 09-05-2010 06:13:02 7.9 C 6.82 g/m*3 7.9 C 0 km/h
392 09-05-2010 06:25:02 8 C 6.7 g/m*3 8 C 0 km/h
393 09-05-2010 06:37:02 8.1 C 6.74 g/m*3 8.1 C 0 km/h
394 09-05-2010 06:49:02 8.3 C 6.83 g/m*3 8.3 C 0 km/h
395 09-05-2010 07:01:02 8.5 C 6.92 g/m*3 8.5 C 0 km/h
396 09-05-2010 07:13:02 8.6 C 6.87 g/m*3 8.6 C 0 km/h
397 09-05-2010 07:25:01 8.7 C 6.83 g/m*3 8.7 C 0 km/h
398 09-05-2010 07:37:02 9.1 C 6.92 g/m*3 9.1 C 0 km/h
399 09-05-2010 07:49:02 9.1 C 6.83 g/m*3 9.1 C 0 km/h
400 09-05-2010 08:01:02 9.6 C 6.96 g/m*3 9.6 C 0 km/h
Sensor: Nr:Datum:Temp:Abs-Feuchte:Windchill:Wind:
Aussen-T/F 401 09-05-2010 08:13:02 9.6 C 6.96 g/m*3 9.6 C 0 km/h
402 09-05-2010 08:25:02 9.6 C 6.87 g/m*3 9.6 C 0 km/h
403 09-05-2010 08:37:02 10 C 7.05 g/m*3 10 C 0 km/h
404 09-05-2010 08:49:02 10.4 C 7.04 g/m*3 10.4 C 0 km/h
405 09-05-2010 09:01:02 10.8 C 7.02 g/m*3 10.8 C 0 km/h
406 09-05-2010 09:13:02 10.9 C 7.16 g/m*3 10.9 C 0 km/h
407 09-05-2010 09:25:02 11.1 C 6.95 g/m*3 11.1 C 0 km/h
408 09-05-2010 09:37:03 11.7 C 7.11 g/m*3 11.7 C 0 km/h
409 09-05-2010 09:49:02 12 C 6.93 g/m*3 12 C 0 km/h
410 09-05-2010 10:01:01 12.4 C 6.99 g/m*3 12.4 C 0 km/h
411 09-05-2010 10:13:01 12.7 C 7.12 g/m*3 12.7 C 0 km/h
412 09-05-2010 10:25:01 12.2 C 7.23 g/m*3 12.2 C 0 km/h
413 09-05-2010 10:37:02 12.2 C 7.55 g/m*3 12.2 C 0 km/h
414 09-05-2010 10:49:02 12 C 7.35 g/m*3 12 C 0 km/h
415 09-05-2010 11:01:01 12.2 C 7.55 g/m*3 12.2 C 0 km/h
416 09-05-2010 11:13:01 12.4 C 7.54 g/m*3 12.4 C 0 km/h
417 09-05-2010 11:25:02 12.3 C 7.38 g/m*3 12.3 C 0 km/h
418 09-05-2010 11:37:01 12.3 C 7.28 g/m*3 12.3 C 0 km/h
419 09-05-2010 11:49:02 12.2 C 7.23 g/m*3 12.2 C 0 km/h
420 09-05-2010 12:01:02 12.3 C 7.28 g/m*3 12.3 C 0 km/h
421 09-05-2010 12:13:02 13 C 7.37 g/m*3 13 C 0 km/h
422 09-05-2010 12:25:02 13.4 C 7.21 g/m*3 13.4 C 0 km/h
423 09-05-2010 12:37:02 14 C 7.24 g/m*3 14 C 0 km/h
424 09-05-2010 12:49:02 14.4 C 7.17 g/m*3 14.4 C 0 km/h
425 09-05-2010 13:01:01 15 C 6.92 g/m*3 15 C 0 km/h
Sensor: Nr:Datum:Temp:Abs-Feuchte:Windchill:Wind:
Aussen-T/F 426 09-05-2010 13:13:01 16.2 C 7.03 g/m*3 16.2 C 0 km/h
427 09-05-2010 13:25:01 17.2 C 6.59 g/m*3 17.2 C 0 km/h
428 09-05-2010 13:37:02 18.5 C 6.33 g/m*3 18.5 C 0 km/h
429 09-05-2010 13:49:02 18.2 C 6.22 g/m*3 18.2 C 0 km/h
430 09-05-2010 14:01:02 17.9 C 6.11 g/m*3 17.9 C 0 km/h
431 09-05-2010 14:13:02 17.5 C 6.11 g/m*3 17.5 C 0 km/h
432 09-05-2010 14:25:02 16.7 C 6.11 g/m*3 16.7 C 0 km/h
433 09-05-2010 14:37:01 16.7 C 6.11 g/m*3 16.7 C 0 km/h
434 09-05-2010 14:49:02 17 C 6.22 g/m*3 17 C 0 km/h
435 09-05-2010 15:01:01 17 C 6.22 g/m*3 17 C 0 km/h
436 09-05-2010 15:13:01 17.3 C 6.33 g/m*3 17.3 C 0 km/h
437 09-05-2010 15:25:02 17.6 C 6.3 g/m*3 17.6 C 0 km/h
438 09-05-2010 15:37:01 17.8 C 6.37 g/m*3 17.8 C 0 km/h
439 09-05-2010 15:49:03 17.9 C 6.26 g/m*3 17.9 C 0 km/h
440 09-05-2010 16:01:02 18 C 6.3 g/m*3 18 C 0 km/h
441 09-05-2010 16:13:02 18.7 C 6.4 g/m*3 18.7 C 0 km/h
442 09-05-2010 16:25:02 19.1 C 6.23 g/m*3 19.1 C 0 km/h
443 09-05-2010 16:37:02 18.7 C 6.08 g/m*3 18.7 C 0 km/h
444 09-05-2010 16:49:02 18 C 5.68 g/m*3 18 C 0 km/h
445 09-05-2010 17:01:02 17.8 C 5.77 g/m*3 17.8 C 0 km/h
446 09-05-2010 17:13:02 19.6 C 5.74 g/m*3 19.6 C 0 km/h
447 09-05-2010 17:25:02 19.5 C 5.03 g/m*3 19.5 C 0 km/h
448 09-05-2010 17:37:02 19.1 C 5.41 g/m*3 19.1 C 0 km/h
449 09-05-2010 17:49:02 19.4 C 5.17 g/m*3 19.4 C 0 km/h
450 09-05-2010 18:01:02 19.5 C 5.71 g/m*3 19.5 C 0 km/h
Sensor: Nr:Datum:Temp:Abs-Feuchte:Windchill:Wind:
Aussen-T/F 451 09-05-2010 18:13:02 18.9 C 5.67 g/m*3 18.9 C 0 km/h
452 09-05-2010 18:25:03 18.7 C 5.76 g/m*3 18.7 C 0 km/h
453 09-05-2010 18:37:02 18.3 C 5.79 g/m*3 18.3 C 0 km/h
454 09-05-2010 18:49:03 18.1 C 6.03 g/m*3 18.1 C 0 km/h
455 09-05-2010 19:01:02 17.6 C 6.6 g/m*3 17.6 C 0 km/h
456 09-05-2010 19:13:03 17 C 6.8 g/m*3 17 C 0 km/h
457 09-05-2010 19:25:02 17 C 6.95 g/m*3 17 C 0 km/h
458 09-05-2010 19:37:02 16.6 C 6.92 g/m*3 16.6 C 0 km/h
459 09-05-2010 19:49:01 16.2 C 6.9 g/m*3 16.2 C 0 km/h
460 09-05-2010 20:01:02 15.8 C 7 g/m*3 15.8 C 0 km/h
461 09-05-2010 20:13:02 15.2 C 6.88 g/m*3 15.2 C 0 km/h
462 09-05-2010 20:25:01 14.8 C 6.84 g/m*3 14.8 C 0 km/h
463 09-05-2010 20:37:01 14.3 C 6.88 g/m*3 14.3 C 0 km/h
464 09-05-2010 20:49:01 14 C 6.75 g/m*3 14 C 0 km/h
465 09-05-2010 21:01:02 13.4 C 6.97 g/m*3 13.4 C 0 km/h
466 09-05-2010 21:13:02 12.8 C 7.06 g/m*3 12.8 C 0 km/h
467 09-05-2010 21:25:02 12.5 C 7.15 g/m*3 12.5 C 0 km/h
468 09-05-2010 21:37:02 12.1 C 7.08 g/m*3 12.1 C 0 km/h
469 09-05-2010 21:49:02 11.7 C 7.11 g/m*3 11.7 C 0 km/h
470 09-05-2010 22:01:03 11.5 C 7.13 g/m*3 11.5 C 0 km/h
471 09-05-2010 22:13:03 11.3 C 7.14 g/m*3 11.3 C 0 km/h
472 09-05-2010 22:25:02 11.1 C 7.05 g/m*3 11.1 C 0 km/h
473 09-05-2010 22:38:04 10.9 C 6.96 g/m*3 10.9 C 0 km/h
474 09-05-2010 22:50:04 10.8 C 7.02 g/m*3 10.8 C 0 km/h
475 09-05-2010 23:02:04 10.8 C 7.12 g/m*3 10.8 C 0 km/h
Sensor: Nr:Datum:Temp:Abs-Feuchte:Windchill:Wind:
Aussen-T/F 476 09-05-2010 23:14:04 10.9 C 7.06 g/m*3 10.9 C 0 km/h
477 09-05-2010 23:26:05 10.7 C 7.07 g/m*3 10.7 C 0 km/h
478 09-05-2010 23:38:05 10.8 C 7.22 g/m*3 10.8 C 0 km/h
479 09-05-2010 23:50:05 10.5 C 7.08 g/m*3 10.5 C 0 km/h
480 10-05-2010 00:02:05 10.4 C 7.13 g/m*3 10.4 C 0 km/h
481 10-05-2010 00:14:05 10.5 C 7.18 g/m*3 10.5 C 0 km/h
482 10-05-2010 00:26:05 10.3 C 7.09 g/m*3 10.3 C 0 km/h
483 10-05-2010 00:38:05 10.1 C 7.09 g/m*3 10.1 C 0 km/h
484 10-05-2010 00:50:05 9.8 C 7.24 g/m*3 9.8 C 0 km/h
485 10-05-2010 01:02:05 9.8 C 7.24 g/m*3 9.8 C 0 km/h
486 10-05-2010 01:14:05 9.8 C 7.33 g/m*3 9.8 C 0 km/h
487 10-05-2010 01:26:05 9.9 C 7.38 g/m*3 9.9 C 0 km/h
488 10-05-2010 01:38:05 10 C 7.24 g/m*3 10 C 0 km/h
489 10-05-2010 01:50:05 9.8 C 7.24 g/m*3 9.8 C 0 km/h
490 10-05-2010 02:02:05 9.7 C 7.19 g/m*3 9.7 C 0 km/h
491 10-05-2010 02:14:05 9.5 C 7.19 g/m*3 9.5 C 0 km/h
492 10-05-2010 02:26:05 9.4 C 7.24 g/m*3 9.4 C 0 km/h
493 10-05-2010 02:38:05 9.4 C 7.24 g/m*3 9.4 C 0 km/h
494 10-05-2010 02:50:05 9.4 C 7.33 g/m*3 9.4 C 0 km/h
495 10-05-2010 03:02:05 9.2 C 7.23 g/m*3 9.2 C 0 km/h
496 10-05-2010 03:14:05 9 C 7.14 g/m*3 9 C 0 km/h
497 10-05-2010 03:26:05 8.8 C 7.14 g/m*3 8.8 C 0 km/h
498 10-05-2010 03:38:05 8.7 C 7.18 g/m*3 8.7 C 0 km/h
499 10-05-2010 03:50:06 8.7 C 7.26 g/m*3 8.7 C 0 km/h
500 10-05-2010 04:02:06 8.6 C 7.22 g/m*3 8.6 C 0 km/h
Sensor: Nr:Datum:Temp:Abs-Feuchte:Windchill:Wind:
Aussen-T/F 501 10-05-2010 04:14:06 8.6 C 7.22 g/m*3 8.6 C 0 km/h
502 10-05-2010 04:26:06 8.6 C 7.3 g/m*3 8.6 C 0 km/h
503 10-05-2010 04:38:06 8.6 C 7.3 g/m*3 8.6 C 0 km/h
504 10-05-2010 04:50:06 8.7 C 7.26 g/m*3 8.7 C 0 km/h
505 10-05-2010 05:02:06 8.6 C 7.22 g/m*3 8.6 C 0 km/h
506 10-05-2010 05:14:06 8.6 C 7.22 g/m*3 8.6 C 0 km/h
507 10-05-2010 05:26:06 8.6 C 7.3 g/m*3 8.6 C 0 km/h
508 10-05-2010 05:38:06 8.7 C 7.35 g/m*3 8.7 C 0 km/h
509 10-05-2010 05:50:06 8.8 C 7.31 g/m*3 8.8 C 0 km/h
510 10-05-2010 06:02:06 8.7 C 7.26 g/m*3 8.7 C 0 km/h
511 10-05-2010 06:14:06 8.7 C 7.26 g/m*3 8.7 C 0 km/h
512 10-05-2010 06:26:06 8.8 C 7.31 g/m*3 8.8 C 0 km/h
513 10-05-2010 06:38:04 8.9 C 7.36 g/m*3 8.9 C 0 km/h
514 10-05-2010 06:50:02 9 C 7.32 g/m*3 9 C 0 km/h
515 10-05-2010 07:02:02 9.1 C 7.36 g/m*3 9.1 C 0 km/h
516 10-05-2010 07:14:02 9.4 C 7.51 g/m*3 9.4 C 0 km/h
517 10-05-2010 07:26:01 9.6 C 7.6 g/m*3 9.6 C 0 km/h
518 10-05-2010 07:38:02 9.8 C 7.7 g/m*3 9.8 C 0 km/h
519 10-05-2010 07:50:02 10.2 C 7.71 g/m*3 10.2 C 0 km/h
520 10-05-2010 08:02:02 10.5 C 7.76 g/m*3 10.5 C 0 km/h
521 10-05-2010 08:14:02 10.6 C 7.71 g/m*3 10.6 C 0 km/h
522 10-05-2010 08:26:02 10.7 C 7.66 g/m*3 10.7 C 0 km/h
523 10-05-2010 08:38:02 10.7 C 7.46 g/m*3 10.7 C 0 km/h
524 10-05-2010 08:50:02 10.7 C 7.37 g/m*3 10.7 C 0 km/h
525 10-05-2010 09:02:02 10.8 C 7.41 g/m*3 10.8 C 0 km/h
Sensor: Nr:Datum:Temp:Abs-Feuchte:Windchill:Wind:
Aussen-T/F 526 10-05-2010 09:14:03 10.8 C 7.22 g/m*3 10.8 C 0 km/h
527 10-05-2010 09:26:02 10.7 C 7.27 g/m*3 10.7 C 0 km/h
528 10-05-2010 09:38:02 11 C 7.21 g/m*3 11 C 0 km/h
529 10-05-2010 09:50:02 11.1 C 7.25 g/m*3 11.1 C 0 km/h
530 10-05-2010 10:02:02 11.1 C 7.15 g/m*3 11.1 C 0 km/h
531 10-05-2010 10:14:02 11.4 C 7.08 g/m*3 11.4 C 0 km/h
532 10-05-2010 10:26:03 11.2 C 7.1 g/m*3 11.2 C 0 km/h
533 10-05-2010 10:38:02 11.6 C 7.17 g/m*3 11.6 C 0 km/h
534 10-05-2010 10:50:02 11.4 C 6.98 g/m*3 11.4 C 0 km/h
535 10-05-2010 11:02:02 11.5 C 7.13 g/m*3 11.5 C 0 km/h
536 10-05-2010 11:14:02 11.5 C 7.02 g/m*3 11.5 C 0 km/h
537 10-05-2010 11:26:02 11.5 C 7.02 g/m*3 11.5 C 0 km/h
538 10-05-2010 11:38:02 11.3 C 7.04 g/m*3 11.3 C 0 km/h
539 10-05-2010 11:50:02 11.7 C 7.22 g/m*3 11.7 C 0 km/h
540 10-05-2010 12:02:03 11.7 C 7.11 g/m*3 11.7 C 0 km/h
541 10-05-2010 12:14:03 11.6 C 6.96 g/m*3 11.6 C 0 km/h
542 10-05-2010 12:26:02 12.7 C 7.01 g/m*3 12.7 C 0 km/h
543 10-05-2010 12:38:03 12.9 C 6.76 g/m*3 12.9 C 0 km/h
544 10-05-2010 12:50:02 14.1 C 6.8 g/m*3 14.1 C 0 km/h
545 10-05-2010 13:02:02 13.5 C 6.43 g/m*3 13.5 C 0 km/h
546 10-05-2010 13:14:02 13.5 C 6.43 g/m*3 13.5 C 0 km/h
547 10-05-2010 13:26:01 14.7 C 6.17 g/m*3 14.7 C 0 km/h
548 10-05-2010 13:38:02 15.3 C 6.4 g/m*3 15.3 C 0 km/h
549 10-05-2010 13:50:02 15.4 C 6.18 g/m*3 15.4 C 0 km/h
550 10-05-2010 14:02:02 15.3 C 6.01 g/m*3 15.3 C 0 km/h
Sensor: Nr:Datum:Temp:Abs-Feuchte:Windchill:Wind:
Aussen-T/F 551 10-05-2010 14:14:02 15.5 C 6.08 g/m*3 15.5 C 0 km/h
552 10-05-2010 14:26:02 14.8 C 5.95 g/m*3 14.8 C 0 km/h
553 10-05-2010 14:38:02 14.7 C 5.92 g/m*3 14.7 C 0 km/h
554 10-05-2010 14:50:02 14.7 C 5.92 g/m*3 14.7 C 0 km/h
555 10-05-2010 15:02:02 15 C 5.77 g/m*3 15 C 0 km/h
556 10-05-2010 15:14:02 15.4 C 5.78 g/m*3 15.4 C 0 km/h
557 10-05-2010 15:26:02 15.1 C 5.93 g/m*3 15.1 C 0 km/h
558 10-05-2010 15:38:02 15.3 C 5.62 g/m*3 15.3 C 0 km/h
559 10-05-2010 15:50:02 14.7 C 5.79 g/m*3 14.7 C 0 km/h
560 10-05-2010 16:02:02 15.2 C 5.84 g/m*3 15.2 C 0 km/h
561 10-05-2010 16:14:02 15.8 C 5.79 g/m*3 15.8 C 0 km/h
562 10-05-2010 16:26:02 15.7 C 5.49 g/m*3 15.7 C 0 km/h
563 10-05-2010 16:38:02 16.2 C 5.52 g/m*3 16.2 C 0 km/h
564 10-05-2010 16:50:02 16.3 C 5.13 g/m*3 16.3 C 0 km/h
565 10-05-2010 17:02:02 15.5 C 5.42 g/m*3 15.5 C 0 km/h
566 10-05-2010 17:14:02 15.6 C 5.45 g/m*3 15.6 C 0 km/h
567 10-05-2010 17:26:02 16 C 5.31 g/m*3 16 C 0 km/h
568 10-05-2010 17:38:02 16 C 5.31 g/m*3 16 C 0 km/h
569 10-05-2010 17:50:01 15.8 C 5.38 g/m*3 15.8 C 0 km/h
570 10-05-2010 18:02:02 16.4 C 5.02 g/m*3 16.4 C 0 km/h
571 10-05-2010 18:14:02 17.3 C 5.01 g/m*3 17.3 C 0 km/h
572 10-05-2010 18:26:02 17.6 C 5.1 g/m*3 17.6 C 0 km/h
573 10-05-2010 18:38:01 17.1 C 4.66 g/m*3 17.1 C 0 km/h
574 10-05-2010 18:50:02 15.8 C 4.71 g/m*3 15.8 C 0 km/h
575 10-05-2010 19:02:01 15.4 C 4.73 g/m*3 15.4 C 0 km/h
Sensor: Nr:Datum:Temp:Abs-Feuchte:Windchill:Wind:
Aussen-T/F 576 10-05-2010 19:14:01 15.6 C 4.92 g/m*3 15.6 C 0 km/h
577 10-05-2010 19:26:02 14.9 C 4.97 g/m*3 14.9 C 0 km/h
578 10-05-2010 19:38:01 14.7 C 5.04 g/m*3 14.7 C 0 km/h
579 10-05-2010 19:50:02 14.5 C 5.1 g/m*3 14.5 C 0 km/h
580 10-05-2010 20:02:01 14.5 C 4.97 g/m*3 14.5 C 0 km/h
581 10-05-2010 20:14:01 14.5 C 4.97 g/m*3 14.5 C 0 km/h
582 10-05-2010 20:26:02 14.3 C 5.04 g/m*3 14.3 C 0 km/h
583 10-05-2010 20:38:01 13.7 C 5.09 g/m*3 13.7 C 0 km/h
584 10-05-2010 20:50:02 13.1 C 5.14 g/m*3 13.1 C 0 km/h
585 10-05-2010 21:02:02 12.8 C 5.38 g/m*3 12.8 C 0 km/h
586 10-05-2010 21:14:02 12.3 C 5.43 g/m*3 12.3 C 0 km/h
587 10-05-2010 21:26:02 11.9 C 5.51 g/m*3 11.9 C 0 km/h
588 10-05-2010 21:38:02 11.6 C 5.4 g/m*3 11.6 C 0 km/h
589 10-05-2010 21:50:02 11.5 C 5.58 g/m*3 11.5 C 0 km/h
590 10-05-2010 22:02:02 11.5 C 5.68 g/m*3 11.5 C 0 km/h
591 10-05-2010 22:14:02 11.5 C 5.58 g/m*3 11.5 C 0 km/h
592 10-05-2010 22:27:04 11.2 C 5.57 g/m*3 11.2 C 0 km/h
593 10-05-2010 22:39:04 11.1 C 5.54 g/m*3 11.1 C 0 km/h
594 10-05-2010 22:51:04 11.8 C 5.79 g/m*3 11.8 C 0 km/h
595 10-05-2010 23:03:04 11.6 C 5.92 g/m*3 11.6 C 0 km/h
596 10-05-2010 23:15:05 11.2 C 5.68 g/m*3 11.2 C 0 km/h
597 10-05-2010 23:27:05 11.3 C 5.81 g/m*3 11.3 C 0 km/h
598 10-05-2010 23:39:05 11.4 C 5.85 g/m*3 11.4 C 0 km/h
599 10-05-2010 23:51:05 11.2 C 5.78 g/m*3 11.2 C 0 km/h
600 11-05-2010 00:03:05 11 C 5.71 g/m*3 11 C 0 km/h
Sensor: Nr:Datum:Temp:Abs-Feuchte:Windchill:Wind:
Aussen-T/F 601 11-05-2010 00:15:05 11.1 C 5.74 g/m*3 11.1 C 0 km/h
602 11-05-2010 00:27:05 10.7 C 5.7 g/m*3 10.7 C 0 km/h
603 11-05-2010 00:39:05 10.8 C 5.83 g/m*3 10.8 C 0 km/h
604 11-05-2010 00:51:05 10.8 C 5.83 g/m*3 10.8 C 0 km/h
605 11-05-2010 01:03:05 10.4 C 5.88 g/m*3 10.4 C 0 km/h
606 11-05-2010 01:15:05 10.5 C 5.82 g/m*3 10.5 C 0 km/h
607 11-05-2010 01:27:05 10.5 C 5.92 g/m*3 10.5 C 0 km/h
608 11-05-2010 01:39:05 10.4 C 5.98 g/m*3 10.4 C 0 km/h
609 11-05-2010 01:51:05 10.3 C 6.03 g/m*3 10.3 C 0 km/h
610 11-05-2010 02:03:05 10.1 C 5.96 g/m*3 10.1 C 0 km/h
611 11-05-2010 02:15:05 10 C 6.01 g/m*3 10 C 0 km/h
612 11-05-2010 02:27:05 10.1 C 6.05 g/m*3 10.1 C 0 km/h
613 11-05-2010 02:39:05 10.1 C 6.05 g/m*3 10.1 C 0 km/h
614 11-05-2010 02:51:05 10.2 C 6.09 g/m*3 10.2 C 0 km/h
615 11-05-2010 03:03:05 10 C 6.11 g/m*3 10 C 0 km/h
616 11-05-2010 03:15:05 9.7 C 5.99 g/m*3 9.7 C 0 km/h
617 11-05-2010 03:27:05 9.9 C 6.07 g/m*3 9.9 C 0 km/h
618 11-05-2010 03:39:06 9.7 C 6.27 g/m*3 9.7 C 0 km/h
619 11-05-2010 03:51:06 9.6 C 6.32 g/m*3 9.6 C 0 km/h
620 11-05-2010 04:03:06 9.7 C 6.45 g/m*3 9.7 C 0 km/h
621 11-05-2010 04:15:06 9.5 C 6.1 g/m*3 9.5 C 0 km/h
622 11-05-2010 04:27:06 9.4 C 6.06 g/m*3 9.4 C 0 km/h
623 11-05-2010 04:39:06 9.3 C 6.02 g/m*3 9.3 C 0 km/h
624 11-05-2010 04:51:06 9.4 C 6.15 g/m*3 9.4 C 0 km/h
625 11-05-2010 05:03:06 9.4 C 6.15 g/m*3 9.4 C 0 km/h
Sensor: Nr:Datum:Temp:Abs-Feuchte:Windchill:Wind:
Aussen-T/F 626 11-05-2010 05:15:06 9.3 C 6.11 g/m*3 9.3 C 0 km/h
627 11-05-2010 05:27:06 9.5 C 6.19 g/m*3 9.5 C 0 km/h
628 11-05-2010 05:39:06 9.4 C 6.15 g/m*3 9.4 C 0 km/h
629 11-05-2010 05:51:06 9.3 C 6.2 g/m*3 9.3 C 0 km/h
630 11-05-2010 06:03:06 9.4 C 6.24 g/m*3 9.4 C 0 km/h
631 11-05-2010 06:15:06 9.3 C 6.11 g/m*3 9.3 C 0 km/h
632 11-05-2010 06:27:06 9.3 C 6.2 g/m*3 9.3 C 0 km/h
633 11-05-2010 06:39:06 9.1 C 6.12 g/m*3 9.1 C 0 km/h
634 11-05-2010 06:51:02 9.1 C 6.12 g/m*3 9.1 C 0 km/h
635 11-05-2010 07:03:01 9.3 C 6.29 g/m*3 9.3 C 0 km/h
636 11-05-2010 07:15:02 9.5 C 6.37 g/m*3 9.5 C 0 km/h
637 11-05-2010 07:27:02 9.6 C 6.32 g/m*3 9.6 C 0 km/h
638 11-05-2010 07:39:02 9.7 C 6.27 g/m*3 9.7 C 0 km/h
639 11-05-2010 07:51:01 9.9 C 6.35 g/m*3 9.9 C 0 km/h
640 11-05-2010 08:03:02 10.1 C 6.24 g/m*3 10.1 C 0 km/h
641 11-05-2010 08:15:01 10.5 C 6.3 g/m*3 10.5 C 0 km/h
642 11-05-2010 08:27:01 10.7 C 6.19 g/m*3 10.7 C 0 km/h
643 11-05-2010 08:39:01 11.2 C 6.28 g/m*3 11.2 C 0 km/h
644 11-05-2010 08:51:01 12 C 6.29 g/m*3 12 C 0 km/h
645 11-05-2010 09:03:02 11.7 C 6.07 g/m*3 11.7 C 0 km/h
646 11-05-2010 09:15:01 11.7 C 6.07 g/m*3 11.7 C 0 km/h
647 11-05-2010 09:27:01 11.9 C 6.14 g/m*3 11.9 C 0 km/h
648 11-05-2010 09:39:02 12.8 C 6.05 g/m*3 12.8 C 0 km/h
649 11-05-2010 09:51:01 12.7 C 5.79 g/m*3 12.7 C 0 km/h
650 11-05-2010 10:03:02 12.8 C 6.16 g/m*3 12.8 C 0 km/h
Sensor: Nr:Datum:Temp:Abs-Feuchte:Windchill:Wind:
Aussen-T/F 651 11-05-2010 10:15:02 13 C 6.01 g/m*3 13 C 0 km/h
652 11-05-2010 10:27:02 13 C 5.9 g/m*3 13 C 0 km/h
653 11-05-2010 10:39:01 12.3 C 5.97 g/m*3 12.3 C 0 km/h
654 11-05-2010 10:51:01 11.8 C 6.21 g/m*3 11.8 C 0 km/h
655 11-05-2010 11:03:01 12 C 6.07 g/m*3 12 C 0 km/h
656 11-05-2010 11:15:02 12 C 6.07 g/m*3 12 C 0 km/h
657 11-05-2010 11:27:02 12 C 6.18 g/m*3 12 C 0 km/h
658 11-05-2010 11:39:02 12.5 C 6.38 g/m*3 12.5 C 0 km/h
659 11-05-2010 11:51:02 14.1 C 6.19 g/m*3 14.1 C 0 km/h
660 11-05-2010 12:03:02 14.1 C 5.95 g/m*3 14.1 C 0 km/h
661 11-05-2010 12:15:02 13.7 C 6.28 g/m*3 13.7 C 0 km/h
662 11-05-2010 12:27:02 14.8 C 6.33 g/m*3 14.8 C 0 km/h
663 11-05-2010 12:39:01 14.1 C 5.95 g/m*3 14.1 C 0 km/h
664 11-05-2010 12:51:02 14.3 C 6.27 g/m*3 14.3 C 0 km/h
665 11-05-2010 13:03:01 13.4 C 6.16 g/m*3 13.4 C 0 km/h
666 11-05-2010 13:15:01 13.7 C 6.39 g/m*3 13.7 C 0 km/h
667 11-05-2010 13:27:01 14.2 C 6.23 g/m*3 14.2 C 0 km/h
668 11-05-2010 13:39:01 14.1 C 6.19 g/m*3 14.1 C 0 km/h
669 11-05-2010 13:51:02 13.3 C 6.35 g/m*3 13.3 C 0 km/h
670 11-05-2010 14:03:01 14.1 C 6.43 g/m*3 14.1 C 0 km/h
671 11-05-2010 14:15:01 14 C 6.27 g/m*3 14 C 0 km/h
672 11-05-2010 14:27:01 14.1 C 6.43 g/m*3 14.1 C 0 km/h
673 11-05-2010 14:39:02 14 C 6.39 g/m*3 14 C 0 km/h
674 11-05-2010 14:51:02 14 C 6.51 g/m*3 14 C 0 km/h
675 11-05-2010 15:03:02 14.4 C 6.55 g/m*3 14.4 C 0 km/h
Sensor: Nr:Datum:Temp:Abs-Feuchte:Windchill:Wind:
Aussen-T/F 676 11-05-2010 15:15:02 14.1 C 6.31 g/m*3 14.1 C 0 km/h
677 11-05-2010 15:27:02 14.7 C 6.55 g/m*3 14.7 C 0 km/h
678 11-05-2010 15:39:02 14.5 C 6.34 g/m*3 14.5 C 0 km/h
679 11-05-2010 15:51:02 14.3 C 6.39 g/m*3 14.3 C 0 km/h
680 11-05-2010 16:03:03 14.3 C 6.51 g/m*3 14.3 C 0 km/h
681 11-05-2010 16:15:02 14.8 C 6.71 g/m*3 14.8 C 0 km/h
682 11-05-2010 16:27:02 15.6 C 6.65 g/m*3 15.6 C 0 km/h
683 11-05-2010 16:39:03 15.9 C 6.5 g/m*3 15.9 C 0 km/h
684 11-05-2010 16:51:01 15.6 C 6.52 g/m*3 15.6 C 0 km/h
685 11-05-2010 17:03:02 14.9 C 6.75 g/m*3 14.9 C 0 km/h
686 11-05-2010 17:15:01 15.1 C 6.58 g/m*3 15.1 C 0 km/h
687 11-05-2010 17:27:01 14.7 C 6.8 g/m*3 14.7 C 0 km/h
688 11-05-2010 17:39:02 14.8 C 6.71 g/m*3 14.8 C 0 km/h
689 11-05-2010 17:51:01 14.7 C 6.8 g/m*3 14.7 C 0 km/h
690 11-05-2010 18:03:02 14.5 C 6.96 g/m*3 14.5 C 0 km/h
691 11-05-2010 18:15:02 13.9 C 7.07 g/m*3 13.9 C 0 km/h
692 11-05-2010 18:27:02 12.5 C 7.48 g/m*3 12.5 C 0 km/h
693 11-05-2010 18:39:02 11.9 C 8.05 g/m*3 11.9 C 0 km/h
694 11-05-2010 18:51:01 11.6 C 8.21 g/m*3 11.6 C 0 km/h
695 11-05-2010 19:03:02 11.3 C 8.16 g/m*3 11.3 C 0 km/h
696 11-05-2010 19:15:02 11.1 C 8.36 g/m*3 11.1 C 0 km/h
697 11-05-2010 19:27:02 10.9 C 8.36 g/m*3 10.9 C 0 km/h
698 11-05-2010 19:39:02 10.8 C 8.3 g/m*3 10.8 C 0 km/h
699 11-05-2010 19:51:01 10.6 C 8.39 g/m*3 10.6 C 0 km/h
700 11-05-2010 20:03:02 10.5 C 8.44 g/m*3 10.5 C 0 km/h
Sensor: Nr:Datum:Temp:Abs-Feuchte:Windchill:Wind:
Aussen-T/F 701 11-05-2010 20:15:02 10.2 C 8.37 g/m*3 10.2 C 0 km/h
702 11-05-2010 20:27:02 10.1 C 8.42 g/m*3 10.1 C 0 km/h
703 11-05-2010 20:39:02 10 C 8.46 g/m*3 10 C 0 km/h
704 11-05-2010 20:51:02 9.8 C 8.54 g/m*3 9.8 C 0 km/h
705 11-05-2010 21:03:01 9.8 C 8.54 g/m*3 9.8 C 0 km/h
706 11-05-2010 21:15:02 9.9 C 8.59 g/m*3 9.9 C 0 km/h
707 11-05-2010 21:27:03 10 C 8.64 g/m*3 10 C 0 km/h
708 11-05-2010 21:39:01 9.8 C 8.63 g/m*3 9.8 C 0 km/h
709 11-05-2010 21:51:02 9.8 C 8.63 g/m*3 9.8 C 0 km/h
710 11-05-2010 22:03:02 9.7 C 8.57 g/m*3 9.7 C 0 km/h
711 11-05-2010 22:15:01 9.6 C 8.52 g/m*3 9.6 C 0 km/h
712 11-05-2010 22:27:01 9.8 C 8.72 g/m*3 9.8 C 0 km/h
713 11-05-2010 22:40:03 9.6 C 8.61 g/m*3 9.6 C 0 km/h
714 11-05-2010 22:52:03 9.7 C 8.67 g/m*3 9.7 C 0 km/h
715 11-05-2010 23:04:03 9.8 C 8.72 g/m*3 9.8 C 0 km/h
716 11-05-2010 23:16:03 9.8 C 8.72 g/m*3 9.8 C 0 km/h
717 11-05-2010 23:28:03 9.8 C 8.72 g/m*3 9.8 C 0 km/h
718 11-05-2010 23:40:03 9.9 C 8.78 g/m*3 9.9 C 0 km/h
719 11-05-2010 23:52:03 9.7 C 8.67 g/m*3 9.7 C 0 km/h
720 12-05-2010 00:04:03 9.7 C 8.67 g/m*3 9.7 C 0 km/h
721 12-05-2010 00:16:03 9.6 C 8.61 g/m*3 9.6 C 0 km/h
722 12-05-2010 00:28:03 9.1 C 8.34 g/m*3 9.1 C 0 km/h
723 12-05-2010 00:40:03 9.1 C 8.34 g/m*3 9.1 C 0 km/h
724 12-05-2010 00:52:03 9.1 C 8.34 g/m*3 9.1 C 0 km/h
725 12-05-2010 01:04:03 9.1 C 8.34 g/m*3 9.1 C 0 km/h
Sensor: Nr:Datum:Temp:Abs-Feuchte:Windchill:Wind:
Aussen-T/F 726 12-05-2010 01:16:03 8.8 C 8.27 g/m*3 8.8 C 0 km/h
727 12-05-2010 01:28:04 8.5 C 8.03 g/m*3 8.5 C 0 km/h
728 12-05-2010 01:40:04 8.4 C 7.97 g/m*3 8.4 C 0 km/h
729 12-05-2010 01:52:04 7.8 C 7.75 g/m*3 7.8 C 0 km/h
730 12-05-2010 02:04:04 7.5 C 7.52 g/m*3 7.5 C 0 km/h
731 12-05-2010 02:16:04 7.8 C 7.75 g/m*3 7.8 C 0 km/h
732 12-05-2010 02:28:04 7.9 C 7.8 g/m*3 7.9 C 0 km/h
733 12-05-2010 02:40:04 7.9 C 7.8 g/m*3 7.9 C 0 km/h
734 12-05-2010 02:52:04 7.5 C 7.6 g/m*3 7.5 C 0 km/h
735 12-05-2010 03:04:04 7.3 C 7.43 g/m*3 7.3 C 0 km/h
736 12-05-2010 03:16:04 7.2 C 7.38 g/m*3 7.2 C 0 km/h
737 12-05-2010 03:28:04 7.1 C 7.33 g/m*3 7.1 C 0 km/h
738 12-05-2010 03:40:04 7 C 7.28 g/m*3 7 C 0 km/h
739 12-05-2010 03:52:04 7 C 7.21 g/m*3 7 C 0 km/h
740 12-05-2010 04:04:04 6.9 C 7.16 g/m*3 6.9 C 0 km/h
741 12-05-2010 04:16:04 6.9 C 7.08 g/m*3 6.9 C 0 km/h
742 12-05-2010 04:28:04 6.9 C 7.01 g/m*3 6.9 C 0 km/h
743 12-05-2010 04:40:04 6.9 C 6.93 g/m*3 6.9 C 0 km/h
744 12-05-2010 04:52:04 6.8 C 6.81 g/m*3 6.8 C 0 km/h
745 12-05-2010 05:04:04 6.8 C 6.73 g/m*3 6.8 C 0 km/h
746 12-05-2010 05:16:04 6.8 C 6.65 g/m*3 6.8 C 0 km/h
747 12-05-2010 05:28:04 6.8 C 6.65 g/m*3 6.8 C 0 km/h
748 12-05-2010 05:40:05 6.8 C 6.65 g/m*3 6.8 C 0 km/h
749 12-05-2010 05:52:05 6.8 C 6.65 g/m*3 6.8 C 0 km/h
750 12-05-2010 06:04:05 6.7 C 6.61 g/m*3 6.7 C 0 km/h
Sensor: Nr:Datum:Temp:Abs-Feuchte:Windchill:Wind:
Aussen-T/F 751 12-05-2010 06:16:05 6.8 C 6.58 g/m*3 6.8 C 0 km/h
752 12-05-2010 06:28:05 6.8 C 6.5 g/m*3 6.8 C 0 km/h
753 12-05-2010 06:40:05 6.8 C 6.58 g/m*3 6.8 C 0 km/h
754 12-05-2010 06:52:05 6.8 C 6.58 g/m*3 6.8 C 0 km/h
755 12-05-2010 07:04:03 6.9 C 6.54 g/m*3 6.9 C 0 km/h
756 12-05-2010 07:16:03 7 C 6.59 g/m*3 7 C 0 km/h
757 12-05-2010 07:28:03 7.1 C 6.71 g/m*3 7.1 C 0 km/h
758 12-05-2010 07:40:03 7.2 C 6.67 g/m*3 7.2 C 0 km/h
759 12-05-2010 07:52:02 7.2 C 6.59 g/m*3 7.2 C 0 km/h
760 12-05-2010 08:04:02 7.3 C 6.56 g/m*3 7.3 C 0 km/h
761 12-05-2010 08:16:02 7.6 C 6.69 g/m*3 7.6 C 0 km/h
762 12-05-2010 08:28:02 7.7 C 6.57 g/m*3 7.7 C 0 km/h
763 12-05-2010 08:40:02 7.8 C 6.45 g/m*3 7.8 C 0 km/h
764 12-05-2010 08:52:01 7.8 C 6.45 g/m*3 7.8 C 0 km/h
765 12-05-2010 09:04:02 8 C 6.37 g/m*3 8 C 0 km/h
766 12-05-2010 09:16:01 8.3 C 6.41 g/m*3 8.3 C 0 km/h
767 12-05-2010 09:28:01 8.4 C 6.19 g/m*3 8.4 C 0 km/h
768 12-05-2010 09:40:01 8.3 C 6.07 g/m*3 8.3 C 0 km/h
769 12-05-2010 09:52:01 8.4 C 6.11 g/m*3 8.4 C 0 km/h
770 12-05-2010 10:04:02 8.4 C 6.02 g/m*3 8.4 C 0 km/h
771 12-05-2010 10:16:01 8.6 C 6.1 g/m*3 8.6 C 0 km/h
772 12-05-2010 10:28:01 8.6 C 6.02 g/m*3 8.6 C 0 km/h
773 12-05-2010 10:40:01 8.7 C 5.97 g/m*3 8.7 C 0 km/h
774 12-05-2010 10:52:01 8.7 C 5.79 g/m*3 8.7 C 0 km/h
775 12-05-2010 11:04:01 8.7 C 5.79 g/m*3 8.7 C 0 km/h
Sensor: Nr:Datum:Temp:Abs-Feuchte:Windchill:Wind:
Aussen-T/F 776 12-05-2010 11:16:02 8.9 C 5.87 g/m*3 8.9 C 0 km/h
777 12-05-2010 11:28:02 8.9 C 5.61 g/m*3 8.9 C 0 km/h
778 12-05-2010 11:40:01 9.3 C 5.57 g/m*3 9.3 C 0 km/h
779 12-05-2010 11:52:01 10.1 C 5.67 g/m*3 10.1 C 0 km/h
780 12-05-2010 12:04:01 10 C 5.54 g/m*3 10 C 0 km/h
781 12-05-2010 12:16:02 9.7 C 5.35 g/m*3 9.7 C 0 km/h
782 12-05-2010 12:28:02 9.9 C 5.51 g/m*3 9.9 C 0 km/h
783 12-05-2010 12:40:01 10.5 C 5.33 g/m*3 10.5 C 0 km/h
784 12-05-2010 12:52:03 10.2 C 5.42 g/m*3 10.2 C 0 km/h
785 12-05-2010 13:04:02 10.5 C 5.43 g/m*3 10.5 C 0 km/h
786 12-05-2010 13:16:02 11.1 C 5.34 g/m*3 11.1 C 0 km/h
787 12-05-2010 13:28:02 10.7 C 5.3 g/m*3 10.7 C 0 km/h
788 12-05-2010 13:40:02 10.4 C 5.2 g/m*3 10.4 C 0 km/h
789 12-05-2010 13:52:02 10.7 C 5.21 g/m*3 10.7 C 0 km/h
790 12-05-2010 14:04:02 10.2 C 5.23 g/m*3 10.2 C 0 km/h
791 12-05-2010 14:16:02 10.2 C 5.23 g/m*3 10.2 C 0 km/h
792 12-05-2010 14:28:02 10.6 C 5.17 g/m*3 10.6 C 0 km/h
793 12-05-2010 14:40:01 10.9 C 5.17 g/m*3 10.9 C 0 km/h
794 12-05-2010 14:52:02 10.7 C 4.81 g/m*3 10.7 C 0 km/h
795 12-05-2010 15:04:01 11.1 C 5.14 g/m*3 11.1 C 0 km/h
796 12-05-2010 15:16:02 10.8 C 4.94 g/m*3 10.8 C 0 km/h
797 12-05-2010 15:28:02 10.8 C 4.84 g/m*3 10.8 C 0 km/h
798 12-05-2010 15:40:02 10.8 C 5.04 g/m*3 10.8 C 0 km/h
799 12-05-2010 15:52:02 10.7 C 5.11 g/m*3 10.7 C 0 km/h
800 12-05-2010 16:04:02 10.8 C 5.24 g/m*3 10.8 C 0 km/h
Sensor: Nr:Datum:Temp:Abs-Feuchte:Windchill:Wind:
Aussen-T/F 801 12-05-2010 16:16:02 10.9 C 5.17 g/m*3 10.9 C 0 km/h
802 12-05-2010 16:28:02 10.7 C 5.3 g/m*3 10.7 C 0 km/h
803 12-05-2010 16:40:02 10.3 C 5.17 g/m*3 10.3 C 0 km/h
804 12-05-2010 16:52:01 9.9 C 5.32 g/m*3 9.9 C 0 km/h
805 12-05-2010 17:04:02 9.6 C 5.22 g/m*3 9.6 C 0 km/h
806 12-05-2010 17:16:01 9.7 C 5.35 g/m*3 9.7 C 0 km/h
807 12-05-2010 17:28:01 9.9 C 5.32 g/m*3 9.9 C 0 km/h
808 12-05-2010 17:40:02 9.9 C 5.32 g/m*3 9.9 C 0 km/h
809 12-05-2010 17:52:02 9.6 C 5.22 g/m*3 9.6 C 0 km/h
810 12-05-2010 18:04:02 9.6 C 5.4 g/m*3 9.6 C 0 km/h
811 12-05-2010 18:16:01 9.3 C 5.39 g/m*3 9.3 C 0 km/h
812 12-05-2010 18:28:01 9.1 C 5.41 g/m*3 9.1 C 0 km/h
813 12-05-2010 18:40:02 9.1 C 5.5 g/m*3 9.1 C 0 km/h
814 12-05-2010 18:52:02 9 C 5.55 g/m*3 9 C 0 km/h
815 12-05-2010 19:04:02 9 C 5.64 g/m*3 9 C 0 km/h
816 12-05-2010 19:16:01 8.8 C 5.66 g/m*3 8.8 C 0 km/h
817 12-05-2010 19:28:01 9 C 5.73 g/m*3 9 C 0 km/h
818 12-05-2010 19:40:02 9 C 5.73 g/m*3 9 C 0 km/h
819 12-05-2010 19:52:02 8.7 C 5.71 g/m*3 8.7 C 0 km/h
820 12-05-2010 20:04:02 8.6 C 5.76 g/m*3 8.6 C 0 km/h
821 12-05-2010 20:16:02 8.6 C 5.84 g/m*3 8.6 C 0 km/h
822 12-05-2010 20:28:02 8.6 C 5.84 g/m*3 8.6 C 0 km/h
823 12-05-2010 20:40:02 8.5 C 5.81 g/m*3 8.5 C 0 km/h
824 12-05-2010 20:52:02 8.5 C 5.98 g/m*3 8.5 C 0 km/h
825 12-05-2010 21:04:02 8.5 C 5.89 g/m*3 8.5 C 0 km/h
Sensor: Nr:Datum:Temp:Abs-Feuchte:Windchill:Wind:
Aussen-T/F 826 12-05-2010 21:16:02 8.4 C 5.94 g/m*3 8.4 C 0 km/h
827 12-05-2010 21:28:02 8.5 C 6.06 g/m*3 8.5 C 0 km/h
828 12-05-2010 21:40:01 8.5 C 6.06 g/m*3 8.5 C 0 km/h
829 12-05-2010 21:52:02 8.3 C 6.07 g/m*3 8.3 C 0 km/h
830 12-05-2010 22:04:01 8 C 6.2 g/m*3 8 C 0 km/h
831 12-05-2010 22:17:03 8 C 6.37 g/m*3 8 C 0 km/h
832 12-05-2010 22:29:03 7.6 C 6.36 g/m*3 7.6 C 0 km/h
833 12-05-2010 22:41:03 7.5 C 6.48 g/m*3 7.5 C 0 km/h
834 12-05-2010 22:53:03 7.7 C 6.65 g/m*3 7.7 C 0 km/h
835 12-05-2010 23:05:03 7.8 C 6.69 g/m*3 7.8 C 0 km/h
836 12-05-2010 23:17:03 7.8 C 6.69 g/m*3 7.8 C 0 km/h
837 12-05-2010 23:29:03 7.8 C 6.69 g/m*3 7.8 C 0 km/h
838 12-05-2010 23:41:04 7.9 C 6.74 g/m*3 7.9 C 0 km/h
839 12-05-2010 23:53:04 7.7 C 6.57 g/m*3 7.7 C 0 km/h

Legende:
   Min
   Max


Maximal/Minimal-Werte vom 06.05.2010 - 12.05.2010

Sensor Min Max Avg
Temp
(Aussen-T/F)
4 °C
08-05-2010  04:36:02
19.9 °C
08-05-2010  18:12:02
9.85 °C
Abs-Feuchte
(Aussen-T/F)
3.47 g/m*3
06-05-2010  00:10:02
8.78 g/m*3
11-05-2010  23:40:03
6.46 g/m*3
Windchill
(Aussen-T/F)
4 C
08-05-2010  04:36:02
19.9 C
08-05-2010  18:12:02
9.84 C

Die Daten stammen von einer Davis Vantage Pro 2 Wetter-Station und werden unter Linux mit der Software wview2wettercgi und aufbereitet. Alle Angaben erfolgen ohne Gewähr für ihre Vollständigkeit oder Richtigkeit.
Kontakt: Rainer Krienke krienke@uni-koblenz.de . Meine Webseiten an der Uni Koblenz oder privat.
Version: $Revision: 0.78 $